sensor_id;sensor_type;location;lat;lon;timestamp;P1;durP1;ratioP1;P2;durP2;ratioP2
35434;SDS011;21556;55.782;37.528;2023-03-16T00:00:45;19.58;;;12.70;;
35434;SDS011;21556;55.782;37.528;2023-03-16T00:03:11;13.60;;;10.70;;
35434;SDS011;21556;55.782;37.528;2023-03-16T00:05:50;16.83;;;12.13;;
35434;SDS011;21556;55.782;37.528;2023-03-16T00:08:17;12.82;;;11.45;;
35434;SDS011;21556;55.782;37.528;2023-03-16T00:10:46;16.33;;;12.02;;
35434;SDS011;21556;55.782;37.528;2023-03-16T00:13:16;14.98;;;12.07;;
35434;SDS011;21556;55.782;37.528;2023-03-16T00:15:52;15.57;;;11.90;;
35434;SDS011;21556;55.782;37.528;2023-03-16T00:18:21;12.30;;;9.40;;
35434;SDS011;21556;55.782;37.528;2023-03-16T00:20:56;17.60;;;12.77;;
35434;SDS011;21556;55.782;37.528;2023-03-16T00:23:26;15.52;;;12.13;;
35434;SDS011;21556;55.782;37.528;2023-03-16T00:25:53;14.23;;;12.43;;
35434;SDS011;21556;55.782;37.528;2023-03-16T00:28:24;14.93;;;12.30;;
35434;SDS011;21556;55.782;37.528;2023-03-16T00:30:51;16.15;;;11.82;;
35434;SDS011;21556;55.782;37.528;2023-03-16T00:33:17;18.25;;;12.52;;
35434;SDS011;21556;55.782;37.528;2023-03-16T00:38:16;14.65;;;10.95;;
35434;SDS011;21556;55.782;37.528;2023-03-16T00:40:42;15.60;;;11.82;;
35434;SDS011;21556;55.782;37.528;2023-03-16T00:43:08;15.40;;;11.70;;
35434;SDS011;21556;55.782;37.528;2023-03-16T00:45:36;14.68;;;11.45;;
35434;SDS011;21556;55.782;37.528;2023-03-16T00:48:01;15.13;;;11.93;;
35434;SDS011;21556;55.782;37.528;2023-03-16T00:50:27;16.52;;;12.05;;
35434;SDS011;21556;55.782;37.528;2023-03-16T00:52:54;17.40;;;12.93;;
35434;SDS011;21556;55.782;37.528;2023-03-16T00:55:19;13.50;;;11.75;;
35434;SDS011;21556;55.782;37.528;2023-03-16T00:57:46;17.23;;;12.90;;
35434;SDS011;21556;55.782;37.528;2023-03-16T01:00:12;15.65;;;12.48;;
35434;SDS011;21556;55.782;37.528;2023-03-16T01:02:44;16.33;;;13.43;;
35434;SDS011;21556;55.782;37.528;2023-03-16T01:05:10;17.45;;;14.20;;
35434;SDS011;21556;55.782;37.528;2023-03-16T01:07:38;18.48;;;13.52;;
35434;SDS011;21556;55.782;37.528;2023-03-16T01:10:05;16.37;;;13.07;;
35434;SDS011;21556;55.782;37.528;2023-03-16T01:12:32;18.90;;;14.00;;
35434;SDS011;21556;55.782;37.528;2023-03-16T01:14:58;16.92;;;15.07;;
35434;SDS011;21556;55.782;37.528;2023-03-16T01:17:25;17.77;;;13.88;;
35434;SDS011;21556;55.782;37.528;2023-03-16T01:19:52;15.75;;;13.10;;
35434;SDS011;21556;55.782;37.528;2023-03-16T01:22:19;16.17;;;14.52;;
35434;SDS011;21556;55.782;37.528;2023-03-16T01:24:48;20.08;;;14.82;;
35434;SDS011;21556;55.782;37.528;2023-03-16T01:27:14;16.58;;;13.45;;
35434;SDS011;21556;55.782;37.528;2023-03-16T01:29:42;17.70;;;13.95;;
35434;SDS011;21556;55.782;37.528;2023-03-16T01:32:09;15.60;;;13.52;;
35434;SDS011;21556;55.782;37.528;2023-03-16T01:34:36;17.52;;;14.70;;
35434;SDS011;21556;55.782;37.528;2023-03-16T01:37:06;18.20;;;15.93;;
35434;SDS011;21556;55.782;37.528;2023-03-16T01:39:54;18.17;;;14.25;;
35434;SDS011;21556;55.782;37.528;2023-03-16T01:42:20;17.88;;;15.55;;
35434;SDS011;21556;55.782;37.528;2023-03-16T01:44:51;18.75;;;14.32;;
35434;SDS011;21556;55.782;37.528;2023-03-16T01:47:33;20.02;;;15.25;;
35434;SDS011;21556;55.782;37.528;2023-03-16T01:50:04;18.63;;;15.35;;
35434;SDS011;21556;55.782;37.528;2023-03-16T01:52:38;19.08;;;15.15;;
35434;SDS011;21556;55.782;37.528;2023-03-16T01:55:06;20.00;;;16.27;;
35434;SDS011;21556;55.782;37.528;2023-03-16T01:57:34;19.13;;;15.25;;
35434;SDS011;21556;55.782;37.528;2023-03-16T02:00:14;18.35;;;15.02;;
35434;SDS011;21556;55.782;37.528;2023-03-16T02:03:07;19.10;;;15.52;;
35434;SDS011;21556;55.782;37.528;2023-03-16T02:05:46;22.00;;;15.20;;
35434;SDS011;21556;55.782;37.528;2023-03-16T02:08:20;21.00;;;14.77;;
35434;SDS011;21556;55.782;37.528;2023-03-16T02:10:47;18.45;;;14.13;;
35434;SDS011;21556;55.782;37.528;2023-03-16T02:13:13;16.35;;;14.38;;
35434;SDS011;21556;55.782;37.528;2023-03-16T02:15:40;19.35;;;16.63;;
35434;SDS011;21556;55.782;37.528;2023-03-16T02:18:06;16.67;;;13.52;;
35434;SDS011;21556;55.782;37.528;2023-03-16T02:23:00;19.08;;;14.05;;
35434;SDS011;21556;55.782;37.528;2023-03-16T02:25:42;19.77;;;15.43;;
35434;SDS011;21556;55.782;37.528;2023-03-16T02:28:37;18.52;;;15.32;;
35434;SDS011;21556;55.782;37.528;2023-03-16T02:31:14;17.30;;;13.80;;
35434;SDS011;21556;55.782;37.528;2023-03-16T02:33:42;15.07;;;12.55;;
35434;SDS011;21556;55.782;37.528;2023-03-16T02:36:09;19.00;;;14.25;;
35434;SDS011;21556;55.782;37.528;2023-03-16T02:38:37;18.95;;;14.30;;
35434;SDS011;21556;55.782;37.528;2023-03-16T02:41:10;17.00;;;13.23;;
35434;SDS011;21556;55.782;37.528;2023-03-16T02:43:41;17.73;;;13.13;;
35434;SDS011;21556;55.782;37.528;2023-03-16T02:46:30;21.77;;;14.85;;
35434;SDS011;21556;55.782;37.528;2023-03-16T02:49:07;15.77;;;13.02;;
35434;SDS011;21556;55.782;37.528;2023-03-16T02:51:36;19.45;;;13.45;;
35434;SDS011;21556;55.782;37.528;2023-03-16T02:54:02;15.13;;;12.57;;
35434;SDS011;21556;55.782;37.528;2023-03-16T02:56:31;15.90;;;13.73;;
35434;SDS011;21556;55.782;37.528;2023-03-16T02:58:57;15.88;;;12.90;;
35434;SDS011;21556;55.782;37.528;2023-03-16T03:01:26;16.10;;;13.05;;
35434;SDS011;21556;55.782;37.528;2023-03-16T03:03:53;17.48;;;12.90;;
35434;SDS011;21556;55.782;37.528;2023-03-16T03:06:19;14.85;;;11.93;;
35434;SDS011;21556;55.782;37.528;2023-03-16T03:08:44;15.60;;;11.93;;
35434;SDS011;21556;55.782;37.528;2023-03-16T03:11:11;20.42;;;13.82;;
35434;SDS011;21556;55.782;37.528;2023-03-16T03:13:37;19.75;;;13.48;;
35434;SDS011;21556;55.782;37.528;2023-03-16T03:16:04;16.05;;;12.40;;
35434;SDS011;21556;55.782;37.528;2023-03-16T03:18:30;14.65;;;12.43;;
35434;SDS011;21556;55.782;37.528;2023-03-16T03:20:56;20.75;;;13.05;;
35434;SDS011;21556;55.782;37.528;2023-03-16T03:23:22;16.55;;;12.00;;
35434;SDS011;21556;55.782;37.528;2023-03-16T03:25:48;19.73;;;13.18;;
35434;SDS011;21556;55.782;37.528;2023-03-16T03:28:15;17.67;;;13.70;;
35434;SDS011;21556;55.782;37.528;2023-03-16T03:30:42;16.83;;;13.13;;
35434;SDS011;21556;55.782;37.528;2023-03-16T03:33:08;17.10;;;12.80;;
35434;SDS011;21556;55.782;37.528;2023-03-16T03:35:34;16.50;;;13.57;;
35434;SDS011;21556;55.782;37.528;2023-03-16T03:38:03;18.00;;;12.70;;
35434;SDS011;21556;55.782;37.528;2023-03-16T03:40:29;18.75;;;13.52;;
35434;SDS011;21556;55.782;37.528;2023-03-16T03:42:58;15.38;;;12.75;;
35434;SDS011;21556;55.782;37.528;2023-03-16T03:45:25;15.10;;;11.80;;
35434;SDS011;21556;55.782;37.528;2023-03-16T03:47:54;17.30;;;12.95;;
35434;SDS011;21556;55.782;37.528;2023-03-16T03:50:21;17.05;;;13.07;;
35434;SDS011;21556;55.782;37.528;2023-03-16T03:53:07;18.63;;;13.82;;
35434;SDS011;21556;55.782;37.528;2023-03-16T03:55:44;15.38;;;12.80;;
35434;SDS011;21556;55.782;37.528;2023-03-16T03:58:10;16.50;;;14.18;;
35434;SDS011;21556;55.782;37.528;2023-03-16T04:00:39;21.85;;;13.57;;
35434;SDS011;21556;55.782;37.528;2023-03-16T04:03:05;19.50;;;13.45;;
35434;SDS011;21556;55.782;37.528;2023-03-16T04:05:37;24.35;;;13.98;;
35434;SDS011;21556;55.782;37.528;2023-03-16T04:08:03;20.80;;;13.07;;
35434;SDS011;21556;55.782;37.528;2023-03-16T04:10:33;18.25;;;12.80;;
35434;SDS011;21556;55.782;37.528;2023-03-16T04:12:59;18.67;;;13.45;;
35434;SDS011;21556;55.782;37.528;2023-03-16T04:15:29;18.48;;;13.80;;
35434;SDS011;21556;55.782;37.528;2023-03-16T04:18:14;18.83;;;14.10;;
35434;SDS011;21556;55.782;37.528;2023-03-16T04:20:41;16.58;;;13.00;;
35434;SDS011;21556;55.782;37.528;2023-03-16T04:23:12;18.33;;;13.00;;
35434;SDS011;21556;55.782;37.528;2023-03-16T04:25:39;16.73;;;13.00;;
35434;SDS011;21556;55.782;37.528;2023-03-16T04:28:07;16.95;;;12.60;;
35434;SDS011;21556;55.782;37.528;2023-03-16T04:33:15;21.23;;;14.32;;
35434;SDS011;21556;55.782;37.528;2023-03-16T04:35:47;17.88;;;12.75;;
35434;SDS011;21556;55.782;37.528;2023-03-16T04:38:15;18.55;;;13.48;;
35434;SDS011;21556;55.782;37.528;2023-03-16T04:40:54;16.15;;;13.18;;
35434;SDS011;21556;55.782;37.528;2023-03-16T04:43:23;16.52;;;13.27;;
35434;SDS011;21556;55.782;37.528;2023-03-16T04:45:53;19.52;;;13.75;;
35434;SDS011;21556;55.782;37.528;2023-03-16T04:48:20;14.57;;;12.88;;
35434;SDS011;21556;55.782;37.528;2023-03-16T04:50:47;18.67;;;13.82;;
35434;SDS011;21556;55.782;37.528;2023-03-16T04:53:16;15.80;;;12.27;;
35434;SDS011;21556;55.782;37.528;2023-03-16T04:55:46;19.23;;;13.98;;
35434;SDS011;21556;55.782;37.528;2023-03-16T04:58:12;17.50;;;12.57;;
35434;SDS011;21556;55.782;37.528;2023-03-16T05:00:39;19.05;;;12.73;;
35434;SDS011;21556;55.782;37.528;2023-03-16T05:03:12;16.52;;;13.02;;
35434;SDS011;21556;55.782;37.528;2023-03-16T05:05:39;19.15;;;12.95;;
35434;SDS011;21556;55.782;37.528;2023-03-16T05:08:07;17.75;;;13.60;;
35434;SDS011;21556;55.782;37.528;2023-03-16T05:10:37;17.70;;;13.02;;
35434;SDS011;21556;55.782;37.528;2023-03-16T05:13:04;17.65;;;13.05;;
35434;SDS011;21556;55.782;37.528;2023-03-16T05:18:03;21.65;;;12.77;;
35434;SDS011;21556;55.782;37.528;2023-03-16T05:20:29;19.00;;;13.80;;
35434;SDS011;21556;55.782;37.528;2023-03-16T05:22:58;18.40;;;13.68;;
35434;SDS011;21556;55.782;37.528;2023-03-16T05:25:28;19.42;;;13.38;;
35434;SDS011;21556;55.782;37.528;2023-03-16T05:27:55;15.65;;;13.40;;
35434;SDS011;21556;55.782;37.528;2023-03-16T05:30:28;16.55;;;13.73;;
35434;SDS011;21556;55.782;37.528;2023-03-16T05:32:57;19.65;;;14.00;;
35434;SDS011;21556;55.782;37.528;2023-03-16T05:35:25;20.60;;;14.32;;
35434;SDS011;21556;55.782;37.528;2023-03-16T05:37:56;19.58;;;13.40;;
35434;SDS011;21556;55.782;37.528;2023-03-16T05:40:22;22.63;;;14.93;;
35434;SDS011;21556;55.782;37.528;2023-03-16T05:42:57;17.63;;;13.73;;
35434;SDS011;21556;55.782;37.528;2023-03-16T05:48:02;16.98;;;12.60;;
35434;SDS011;21556;55.782;37.528;2023-03-16T05:50:32;16.17;;;13.60;;
35434;SDS011;21556;55.782;37.528;2023-03-16T05:52:58;17.02;;;13.70;;
35434;SDS011;21556;55.782;37.528;2023-03-16T05:55:24;21.20;;;13.90;;
35434;SDS011;21556;55.782;37.528;2023-03-16T05:58:04;18.60;;;13.60;;
35434;SDS011;21556;55.782;37.528;2023-03-16T06:00:45;18.17;;;14.07;;
35434;SDS011;21556;55.782;37.528;2023-03-16T06:03:21;19.63;;;13.75;;
35434;SDS011;21556;55.782;37.528;2023-03-16T06:05:53;22.55;;;15.70;;
35434;SDS011;21556;55.782;37.528;2023-03-16T06:08:30;25.80;;;13.75;;
35434;SDS011;21556;55.782;37.528;2023-03-16T06:11:06;15.85;;;12.80;;
35434;SDS011;21556;55.782;37.528;2023-03-16T06:13:33;16.58;;;13.15;;
35434;SDS011;21556;55.782;37.528;2023-03-16T06:16:00;16.70;;;12.52;;
35434;SDS011;21556;55.782;37.528;2023-03-16T06:18:27;18.42;;;13.50;;
35434;SDS011;21556;55.782;37.528;2023-03-16T06:20:58;16.35;;;13.63;;
35434;SDS011;21556;55.782;37.528;2023-03-16T06:23:25;19.23;;;14.00;;
35434;SDS011;21556;55.782;37.528;2023-03-16T06:25:54;16.05;;;13.20;;
35434;SDS011;21556;55.782;37.528;2023-03-16T06:28:28;18.85;;;12.88;;
35434;SDS011;21556;55.782;37.528;2023-03-16T06:30:56;18.13;;;13.10;;
35434;SDS011;21556;55.782;37.528;2023-03-16T06:33:26;15.88;;;12.25;;
35434;SDS011;21556;55.782;37.528;2023-03-16T06:35:52;17.40;;;13.63;;
35434;SDS011;21556;55.782;37.528;2023-03-16T06:38:28;16.95;;;13.20;;
35434;SDS011;21556;55.782;37.528;2023-03-16T06:41:15;14.47;;;11.10;;
35434;SDS011;21556;55.782;37.528;2023-03-16T06:46:10;18.08;;;14.70;;
35434;SDS011;21556;55.782;37.528;2023-03-16T06:48:36;16.38;;;13.02;;
35434;SDS011;21556;55.782;37.528;2023-03-16T06:51:03;18.58;;;13.95;;
35434;SDS011;21556;55.782;37.528;2023-03-16T06:53:31;18.73;;;13.40;;
35434;SDS011;21556;55.782;37.528;2023-03-16T06:55:57;20.60;;;13.50;;
35434;SDS011;21556;55.782;37.528;2023-03-16T06:58:25;19.35;;;14.00;;
35434;SDS011;21556;55.782;37.528;2023-03-16T07:00:51;15.90;;;13.23;;
35434;SDS011;21556;55.782;37.528;2023-03-16T07:03:18;17.65;;;13.18;;
35434;SDS011;21556;55.782;37.528;2023-03-16T07:05:50;19.35;;;14.50;;
35434;SDS011;21556;55.782;37.528;2023-03-16T07:08:17;18.92;;;13.38;;
35434;SDS011;21556;55.782;37.528;2023-03-16T07:10:42;18.70;;;13.73;;
35434;SDS011;21556;55.782;37.528;2023-03-16T07:13:08;15.70;;;13.98;;
35434;SDS011;21556;55.782;37.528;2023-03-16T07:15:37;15.25;;;13.52;;
35434;SDS011;21556;55.782;37.528;2023-03-16T07:18:05;20.83;;;13.40;;
35434;SDS011;21556;55.782;37.528;2023-03-16T07:20:31;16.65;;;13.23;;
35434;SDS011;21556;55.782;37.528;2023-03-16T07:22:59;22.30;;;13.88;;
35434;SDS011;21556;55.782;37.528;2023-03-16T07:25:25;20.67;;;14.60;;
35434;SDS011;21556;55.782;37.528;2023-03-16T07:27:53;23.53;;;14.37;;
35434;SDS011;21556;55.782;37.528;2023-03-16T07:30:25;19.02;;;14.30;;
35434;SDS011;21556;55.782;37.528;2023-03-16T07:32:51;19.70;;;14.25;;
35434;SDS011;21556;55.782;37.528;2023-03-16T07:35:20;17.17;;;14.38;;
35434;SDS011;21556;55.782;37.528;2023-03-16T07:37:46;17.60;;;13.45;;
35434;SDS011;21556;55.782;37.528;2023-03-16T07:40:12;17.80;;;14.50;;
35434;SDS011;21556;55.782;37.528;2023-03-16T07:42:39;17.77;;;14.48;;
35434;SDS011;21556;55.782;37.528;2023-03-16T07:45:24;20.75;;;14.25;;
35434;SDS011;21556;55.782;37.528;2023-03-16T07:47:51;18.95;;;14.20;;
35434;SDS011;21556;55.782;37.528;2023-03-16T07:50:32;18.30;;;13.60;;
35434;SDS011;21556;55.782;37.528;2023-03-16T07:52:58;19.92;;;13.95;;
35434;SDS011;21556;55.782;37.528;2023-03-16T07:55:24;18.73;;;13.82;;
35434;SDS011;21556;55.782;37.528;2023-03-16T07:57:51;19.55;;;14.40;;
35434;SDS011;21556;55.782;37.528;2023-03-16T08:00:27;20.10;;;14.52;;
35434;SDS011;21556;55.782;37.528;2023-03-16T08:02:53;18.00;;;14.20;;
35434;SDS011;21556;55.782;37.528;2023-03-16T08:05:20;19.25;;;14.43;;
35434;SDS011;21556;55.782;37.528;2023-03-16T08:07:52;19.95;;;14.05;;
35434;SDS011;21556;55.782;37.528;2023-03-16T08:10:22;16.30;;;13.82;;
35434;SDS011;21556;55.782;37.528;2023-03-16T08:12:54;17.00;;;13.70;;
35434;SDS011;21556;55.782;37.528;2023-03-16T08:15:20;19.23;;;14.65;;
35434;SDS011;21556;55.782;37.528;2023-03-16T08:17:47;18.80;;;14.48;;
35434;SDS011;21556;55.782;37.528;2023-03-16T08:20:20;20.48;;;15.07;;
35434;SDS011;21556;55.782;37.528;2023-03-16T08:22:46;18.13;;;14.65;;
35434;SDS011;21556;55.782;37.528;2023-03-16T08:25:16;19.45;;;15.85;;
35434;SDS011;21556;55.782;37.528;2023-03-16T08:27:55;20.33;;;15.07;;
35434;SDS011;21556;55.782;37.528;2023-03-16T08:30:23;19.60;;;14.93;;
35434;SDS011;21556;55.782;37.528;2023-03-16T08:33:06;21.30;;;15.55;;
35434;SDS011;21556;55.782;37.528;2023-03-16T08:35:32;17.85;;;14.32;;
35434;SDS011;21556;55.782;37.528;2023-03-16T08:37:58;18.92;;;14.73;;
35434;SDS011;21556;55.782;37.528;2023-03-16T08:40:24;19.90;;;15.52;;
35434;SDS011;21556;55.782;37.528;2023-03-16T08:42:54;19.83;;;15.50;;
35434;SDS011;21556;55.782;37.528;2023-03-16T08:45:26;22.40;;;16.10;;
35434;SDS011;21556;55.782;37.528;2023-03-16T08:47:52;23.73;;;15.88;;
35434;SDS011;21556;55.782;37.528;2023-03-16T08:50:18;20.75;;;15.15;;
35434;SDS011;21556;55.782;37.528;2023-03-16T08:52:45;21.13;;;15.27;;
35434;SDS011;21556;55.782;37.528;2023-03-16T08:57:40;19.70;;;16.02;;
35434;SDS011;21556;55.782;37.528;2023-03-16T09:00:09;21.05;;;16.88;;
35434;SDS011;21556;55.782;37.528;2023-03-16T09:02:40;17.45;;;15.43;;
35434;SDS011;21556;55.782;37.528;2023-03-16T09:05:07;22.23;;;15.60;;
35434;SDS011;21556;55.782;37.528;2023-03-16T09:07:35;19.80;;;15.77;;
35434;SDS011;21556;55.782;37.528;2023-03-16T09:10:02;22.65;;;17.20;;
35434;SDS011;21556;55.782;37.528;2023-03-16T09:12:31;26.60;;;17.65;;
35434;SDS011;21556;55.782;37.528;2023-03-16T09:15:00;24.95;;;17.27;;
35434;SDS011;21556;55.782;37.528;2023-03-16T09:17:29;23.95;;;16.30;;
35434;SDS011;21556;55.782;37.528;2023-03-16T09:19:59;24.70;;;16.63;;
35434;SDS011;21556;55.782;37.528;2023-03-16T09:22:24;21.35;;;16.63;;
35434;SDS011;21556;55.782;37.528;2023-03-16T09:24:53;24.23;;;16.40;;
35434;SDS011;21556;55.782;37.528;2023-03-16T09:27:19;23.30;;;17.00;;
35434;SDS011;21556;55.782;37.528;2023-03-16T09:29:48;19.67;;;16.42;;
35434;SDS011;21556;55.782;37.528;2023-03-16T09:32:14;24.23;;;18.05;;
35434;SDS011;21556;55.782;37.528;2023-03-16T09:34:41;22.33;;;15.88;;
35434;SDS011;21556;55.782;37.528;2023-03-16T09:37:07;24.40;;;17.60;;
35434;SDS011;21556;55.782;37.528;2023-03-16T09:39:34;23.20;;;17.73;;
35434;SDS011;21556;55.782;37.528;2023-03-16T09:43:01;24.02;;;17.10;;
35434;SDS011;21556;55.782;37.528;2023-03-16T09:47:41;26.65;;;18.83;;
35434;SDS011;21556;55.782;37.528;2023-03-16T09:50:24;20.35;;;17.17;;
35434;SDS011;21556;55.782;37.528;2023-03-16T09:55:54;24.60;;;18.13;;
35434;SDS011;21556;55.782;37.528;2023-03-16T09:58:23;24.90;;;17.52;;
35434;SDS011;21556;55.782;37.528;2023-03-16T10:06:38;24.77;;;17.35;;
35434;SDS011;21556;55.782;37.528;2023-03-16T10:09:42;23.05;;;18.13;;
35434;SDS011;21556;55.782;37.528;2023-03-16T10:12:21;21.05;;;17.45;;
35434;SDS011;21556;55.782;37.528;2023-03-16T10:14:55;20.83;;;17.85;;
35434;SDS011;21556;55.782;37.528;2023-03-16T10:17:30;22.83;;;17.80;;
35434;SDS011;21556;55.782;37.528;2023-03-16T10:20:10;21.55;;;17.45;;
35434;SDS011;21556;55.782;37.528;2023-03-16T10:22:42;24.48;;;18.08;;
35434;SDS011;21556;55.782;37.528;2023-03-16T10:27:51;22.92;;;18.15;;
35434;SDS011;21556;55.782;37.528;2023-03-16T10:30:25;23.27;;;18.65;;
35434;SDS011;21556;55.782;37.528;2023-03-16T10:33:00;22.77;;;18.95;;
35434;SDS011;21556;55.782;37.528;2023-03-16T10:38:42;23.60;;;18.88;;
35434;SDS011;21556;55.782;37.528;2023-03-16T10:41:55;19.35;;;17.30;;
35434;SDS011;21556;55.782;37.528;2023-03-16T10:47:05;22.35;;;18.58;;
35434;SDS011;21556;55.782;37.528;2023-03-16T10:49:41;30.75;;;22.92;;
35434;SDS011;21556;55.782;37.528;2023-03-16T10:55:25;23.30;;;19.25;;
35434;SDS011;21556;55.782;37.528;2023-03-16T10:57:59;22.52;;;17.90;;
35434;SDS011;21556;55.782;37.528;2023-03-16T11:00:35;21.95;;;17.67;;
35434;SDS011;21556;55.782;37.528;2023-03-16T11:06:02;22.58;;;19.45;;
35434;SDS011;21556;55.782;37.528;2023-03-16T11:08:37;23.27;;;18.30;;
35434;SDS011;21556;55.782;37.528;2023-03-16T11:11:12;24.45;;;19.40;;
35434;SDS011;21556;55.782;37.528;2023-03-16T11:13:45;24.65;;;19.45;;
35434;SDS011;21556;55.782;37.528;2023-03-16T11:16:16;24.17;;;19.30;;
35434;SDS011;21556;55.782;37.528;2023-03-16T11:24:59;23.08;;;18.20;;
35434;SDS011;21556;55.782;37.528;2023-03-16T11:32:53;24.23;;;19.00;;
35434;SDS011;21556;55.782;37.528;2023-03-16T11:35:27;25.25;;;19.45;;
35434;SDS011;21556;55.782;37.528;2023-03-16T11:45:49;23.95;;;20.08;;
35434;SDS011;21556;55.782;37.528;2023-03-16T11:48:41;26.73;;;18.50;;
35434;SDS011;21556;55.782;37.528;2023-03-16T11:51:26;26.60;;;21.15;;
35434;SDS011;21556;55.782;37.528;2023-03-16T11:56:58;27.10;;;21.88;;
35434;SDS011;21556;55.782;37.528;2023-03-16T12:02:44;30.00;;;21.33;;
35434;SDS011;21556;55.782;37.528;2023-03-16T12:10:40;32.58;;;24.35;;
35434;SDS011;21556;55.782;37.528;2023-03-16T12:13:40;33.50;;;24.58;;
35434;SDS011;21556;55.782;37.528;2023-03-16T12:18:45;30.98;;;24.40;;
35434;SDS011;21556;55.782;37.528;2023-03-16T12:21:16;36.83;;;27.20;;
35434;SDS011;21556;55.782;37.528;2023-03-16T12:26:22;35.40;;;26.65;;
35434;SDS011;21556;55.782;37.528;2023-03-16T12:28:50;32.17;;;25.60;;
35434;SDS011;21556;55.782;37.528;2023-03-16T12:31:23;36.38;;;26.05;;
35434;SDS011;21556;55.782;37.528;2023-03-16T12:37:10;33.53;;;24.70;;
35434;SDS011;21556;55.782;37.528;2023-03-16T12:48:29;34.97;;;22.17;;
35434;SDS011;21556;55.782;37.528;2023-03-16T12:50:59;33.92;;;23.20;;
35434;SDS011;21556;55.782;37.528;2023-03-16T12:53:41;28.38;;;22.08;;
35434;SDS011;21556;55.782;37.528;2023-03-16T12:56:13;28.65;;;21.63;;
35434;SDS011;21556;55.782;37.528;2023-03-16T12:58:44;30.88;;;22.08;;
35434;SDS011;21556;55.782;37.528;2023-03-16T13:01:13;28.90;;;21.60;;
35434;SDS011;21556;55.782;37.528;2023-03-16T13:03:45;28.92;;;22.92;;
35434;SDS011;21556;55.782;37.528;2023-03-16T13:06:21;30.67;;;21.38;;
35434;SDS011;21556;55.782;37.528;2023-03-16T13:08:55;31.27;;;23.17;;
35434;SDS011;21556;55.782;37.528;2023-03-16T13:11:28;30.65;;;23.13;;
35434;SDS011;21556;55.782;37.528;2023-03-16T13:14:06;28.38;;;21.73;;
35434;SDS011;21556;55.782;37.528;2023-03-16T13:16:36;31.98;;;23.85;;
35434;SDS011;21556;55.782;37.528;2023-03-16T13:19:15;32.42;;;24.17;;
35434;SDS011;21556;55.782;37.528;2023-03-16T13:22:01;30.90;;;22.88;;
35434;SDS011;21556;55.782;37.528;2023-03-16T13:24:48;27.60;;;23.15;;
35434;SDS011;21556;55.782;37.528;2023-03-16T13:27:19;33.10;;;24.38;;
35434;SDS011;21556;55.782;37.528;2023-03-16T13:29:59;28.45;;;23.13;;
35434;SDS011;21556;55.782;37.528;2023-03-16T13:32:30;28.83;;;22.73;;
35434;SDS011;21556;55.782;37.528;2023-03-16T13:34:58;32.63;;;24.10;;
35434;SDS011;21556;55.782;37.528;2023-03-16T13:37:28;28.77;;;23.15;;
35434;SDS011;21556;55.782;37.528;2023-03-16T13:39:58;28.95;;;22.35;;
35434;SDS011;21556;55.782;37.528;2023-03-16T13:42:28;27.30;;;22.63;;
35434;SDS011;21556;55.782;37.528;2023-03-16T13:44:57;29.58;;;22.38;;
35434;SDS011;21556;55.782;37.528;2023-03-16T13:47:24;28.30;;;22.00;;
35434;SDS011;21556;55.782;37.528;2023-03-16T13:49:55;26.27;;;21.73;;
35434;SDS011;21556;55.782;37.528;2023-03-16T13:52:29;28.48;;;22.85;;
35434;SDS011;21556;55.782;37.528;2023-03-16T13:54:58;27.58;;;22.17;;
35434;SDS011;21556;55.782;37.528;2023-03-16T13:57:27;27.45;;;23.35;;
35434;SDS011;21556;55.782;37.528;2023-03-16T14:00:00;28.73;;;22.15;;
35434;SDS011;21556;55.782;37.528;2023-03-16T14:02:35;28.40;;;21.58;;
35434;SDS011;21556;55.782;37.528;2023-03-16T14:05:08;28.63;;;22.52;;
35434;SDS011;21556;55.782;37.528;2023-03-16T14:07:36;25.63;;;21.27;;
35434;SDS011;21556;55.782;37.528;2023-03-16T14:10:04;21.20;;;16.50;;
35434;SDS011;21556;55.782;37.528;2023-03-16T14:12:31;27.10;;;20.77;;
35434;SDS011;21556;55.782;37.528;2023-03-16T14:14:57;24.90;;;19.70;;
35434;SDS011;21556;55.782;37.528;2023-03-16T14:17:22;26.08;;;19.88;;
35434;SDS011;21556;55.782;37.528;2023-03-16T14:19:55;25.67;;;20.92;;
35434;SDS011;21556;55.782;37.528;2023-03-16T14:22:26;28.15;;;21.05;;
35434;SDS011;21556;55.782;37.528;2023-03-16T14:24:58;25.65;;;21.08;;
35434;SDS011;21556;55.782;37.528;2023-03-16T14:27:59;26.02;;;21.52;;
35434;SDS011;21556;55.782;37.528;2023-03-16T14:30:26;27.02;;;20.80;;
35434;SDS011;21556;55.782;37.528;2023-03-16T14:35:25;26.50;;;19.63;;
35434;SDS011;21556;55.782;37.528;2023-03-16T14:37:55;24.30;;;18.27;;
35434;SDS011;21556;55.782;37.528;2023-03-16T14:40:22;28.13;;;18.88;;
35434;SDS011;21556;55.782;37.528;2023-03-16T14:42:54;24.65;;;19.25;;
35434;SDS011;21556;55.782;37.528;2023-03-16T14:45:25;25.60;;;19.23;;
35434;SDS011;21556;55.782;37.528;2023-03-16T14:48:05;22.25;;;17.08;;
35434;SDS011;21556;55.782;37.528;2023-03-16T14:50:41;22.85;;;16.88;;
35434;SDS011;21556;55.782;37.528;2023-03-16T14:53:08;20.92;;;16.63;;
35434;SDS011;21556;55.782;37.528;2023-03-16T14:55:36;23.48;;;18.42;;
35434;SDS011;21556;55.782;37.528;2023-03-16T14:58:02;20.70;;;15.40;;
35434;SDS011;21556;55.782;37.528;2023-03-16T15:00:28;20.73;;;16.58;;
35434;SDS011;21556;55.782;37.528;2023-03-16T15:03:02;24.38;;;16.90;;
35434;SDS011;21556;55.782;37.528;2023-03-16T15:05:40;22.35;;;16.85;;
35434;SDS011;21556;55.782;37.528;2023-03-16T15:08:24;21.02;;;16.52;;
35434;SDS011;21556;55.782;37.528;2023-03-16T15:10:56;21.35;;;16.80;;
35434;SDS011;21556;55.782;37.528;2023-03-16T15:13:29;23.40;;;16.90;;
35434;SDS011;21556;55.782;37.528;2023-03-16T15:16:17;20.00;;;15.38;;
35434;SDS011;21556;55.782;37.528;2023-03-16T15:18:51;21.42;;;15.27;;
35434;SDS011;21556;55.782;37.528;2023-03-16T15:21:23;19.15;;;15.10;;
35434;SDS011;21556;55.782;37.528;2023-03-16T15:23:53;21.38;;;15.57;;
35434;SDS011;21556;55.782;37.528;2023-03-16T15:26:23;21.23;;;16.42;;
35434;SDS011;21556;55.782;37.528;2023-03-16T15:28:51;21.25;;;15.90;;
35434;SDS011;21556;55.782;37.528;2023-03-16T15:31:18;20.38;;;15.13;;
35434;SDS011;21556;55.782;37.528;2023-03-16T15:33:44;19.48;;;14.73;;
35434;SDS011;21556;55.782;37.528;2023-03-16T15:36:14;20.38;;;14.00;;
35434;SDS011;21556;55.782;37.528;2023-03-16T15:38:43;18.30;;;14.55;;
35434;SDS011;21556;55.782;37.528;2023-03-16T15:41:12;18.80;;;14.25;;
35434;SDS011;21556;55.782;37.528;2023-03-16T15:43:39;20.73;;;14.35;;
35434;SDS011;21556;55.782;37.528;2023-03-16T15:46:05;19.33;;;14.25;;
35434;SDS011;21556;55.782;37.528;2023-03-16T15:48:31;20.48;;;15.02;;
35434;SDS011;21556;55.782;37.528;2023-03-16T15:51:40;20.08;;;14.55;;
35434;SDS011;21556;55.782;37.528;2023-03-16T15:53:56;21.92;;;14.35;;
35434;SDS011;21556;55.782;37.528;2023-03-16T15:56:26;19.42;;;15.15;;
35434;SDS011;21556;55.782;37.528;2023-03-16T15:58:54;18.88;;;14.85;;
35434;SDS011;21556;55.782;37.528;2023-03-16T16:01:27;17.77;;;14.10;;
35434;SDS011;21556;55.782;37.528;2023-03-16T16:03:56;17.85;;;14.02;;